Time;durP1;ratioP1;P1;durP2;ratioP2;P2;SDS_P1;SDS_P2;PMS_P1;PMS_P2;Temp;Humidity;BMP_temperature;BMP_pressure;BME280_temperature;BME280_humidity;BME280_pressure;Samples;Min_cycle;Max_cycle;Signal;HPM_P1;HPM_P2
2023/10/26 00:00:45;;;;;;;4.40;1.38;;;9.10;99.90;;;;;;25345126;23;20014;-58
2023/10/26 00:10:47;;;;;;;5.35;1.60;;;8.80;99.90;;;;;;25345092;23;20066;-58
2023/10/26 00:20:55;;;;;;;4.63;1.60;;;8.70;99.90;;;;;;25345977;23;20017;-57
2023/10/26 00:30:56;;;;;;;4.03;1.20;;;8.60;99.90;;;;;;25384908;23;20009;-51
2023/10/26 00:40:58;;;;;;;2.85;1.17;;;8.70;99.90;;;;;;25317428;23;20010;-53
2023/10/26 00:51:00;;;;;;;6.35;1.40;;;8.80;99.90;;;;;;25343047;23;20060;-58
2023/10/26 01:01:03;;;;;;;3.80;1.27;;;8.60;99.90;;;;;;25342637;23;20014;-54
2023/10/26 01:11:06;;;;;;;2.95;0.70;;;8.60;99.90;;;;;;25342063;23;20037;-53
2023/10/26 01:21:09;;;;;;;4.50;0.73;;;8.70;99.90;;;;;;25341781;23;20009;-54
2023/10/26 01:31:14;;;;;;;6.15;0.60;;;8.80;99.90;;;;;;25341464;23;20064;-58
2023/10/26 01:41:16;;;;;;;3.05;0.40;;;8.70;99.90;;;;;;25340867;23;20057;-52
2023/10/26 01:51:18;;;;;;;1.10;0.50;;;8.50;99.90;;;;;;25314905;23;20057;-54
2023/10/26 02:01:20;;;;;;;1.45;0.40;;;8.00;99.90;;;;;;25341014;23;20041;-58
2023/10/26 02:11:22;;;;;;;1.48;0.40;;;7.60;99.90;;;;;;25314731;23;20014;-52
2023/10/26 02:21:23;;;;;;;1.45;0.38;;;8.00;99.90;;;;;;25314742;23;20057;-58
2023/10/26 02:31:25;;;;;;;0.57;0.30;;;8.30;99.90;;;;;;25340159;23;20089;-53
2023/10/26 02:41:27;;;;;;;0.40;0.20;;;8.20;99.90;;;;;;25340024;23;20057;-53
2023/10/26 02:51:28;;;;;;;2.45;0.20;;;9.10;99.90;;;;;;25346147;23;20361;-59
2023/10/26 03:01:35;;;;;;;1.35;0.30;;;9.70;99.90;;;;;;25347933;23;20393;-58
2023/10/26 03:11:36;;;;;;;0.57;0.20;;;9.80;99.90;;;;;;25361709;23;20010;-57
2023/10/26 03:21:38;;;;;;;2.15;0.43;;;9.80;99.90;;;;;;25346822;23;20350;-55
2023/10/26 03:31:41;;;;;;;0.93;0.30;;;10.10;99.90;;;;;;25346364;23;20006;-58
2023/10/26 03:41:43;;;;;;;1.35;0.20;;;10.10;99.90;;;;;;25319590;23;20010;-58
2023/10/26 03:51:45;;;;;;;1.15;0.30;;;10.00;99.90;;;;;;25344964;23;20002;-58
2023/10/26 04:01:47;;;;;;;0.70;0.30;;;9.30;99.90;;;;;;25343927;23;20454;-58
2023/10/26 04:11:49;;;;;;;3.83;0.40;;;9.20;99.90;;;;;;25344020;23;20010;-53
2023/10/26 04:21:51;;;;;;;1.38;0.30;;;10.20;99.90;;;;;;25343637;23;20382;-55
2023/10/26 04:31:52;;;;;;;1.58;0.13;;;10.50;99.90;;;;;;25343141;23;20059;-57
2023/10/26 04:41:54;;;;;;;1.08;0.17;;;10.50;99.90;;;;;;25342536;23;20505;-58
2023/10/26 04:51:56;;;;;;;0.30;0.10;;;10.30;99.90;;;;;;25317600;23;20002;-58
2023/10/26 05:01:57;;;;;;;8.25;2.97;;;10.10;99.90;;;;;;25342318;23;20054;-51
2023/10/26 05:11:59;;;;;;;2.05;0.40;;;9.60;99.90;;;;;;25341544;23;20342;-58
2023/10/26 05:22:01;;;;;;;1.00;0.40;;;9.00;99.90;;;;;;25341212;23;20002;-52
2023/10/26 05:32:03;;;;;;;3.95;1.65;;;9.60;99.90;;;;;;25340969;23;20016;-56
2023/10/26 05:42:05;;;;;;;2.88;0.35;;;9.70;99.90;;;;;;25340589;23;20053;-54
2023/10/26 05:52:07;;;;;;;1.83;0.73;;;9.40;99.90;;;;;;25340360;23;20010;-58
2023/10/26 06:02:09;;;;;;;2.90;1.10;;;9.80;99.90;;;;;;25339013;23;20041;-53
2023/10/26 06:12:12;;;;;;;1.55;0.90;;;9.30;99.90;;;;;;25337965;23;20014;-53
2023/10/26 06:22:13;;;;;;;2.78;0.75;;;8.90;99.90;;;;;;25339538;23;20049;-54
2023/10/26 06:32:15;;;;;;;1.55;0.73;;;8.60;99.90;;;;;;25338245;23;20009;-51
2023/10/26 06:42:17;;;;;;;1.70;0.85;;;8.40;99.90;;;;;;25337596;23;20013;-54
2023/10/26 06:52:19;;;;;;;6.85;1.80;;;8.60;99.90;;;;;;25288759;23;20371;-53
2023/10/26 07:02:20;;;;;;;4.45;1.67;;;9.20;99.90;;;;;;25311503;23;20069;-58
2023/10/26 07:12:22;;;;;;;7.97;3.33;;;9.40;99.90;;;;;;25337811;23;20282;-58
2023/10/26 07:22:25;;;;;;;9.93;4.90;;;9.70;99.90;;;;;;25336908;23;20005;-54
2023/10/26 07:32:27;;;;;;;8.63;5.47;;;9.90;99.90;;;;;;25338287;23;20005;-52
2023/10/26 07:42:29;;;;;;;14.75;7.90;;;10.00;99.90;;;;;;25343223;23;20437;-53
2023/10/26 07:52:31;;;;;;;13.45;7.38;;;10.50;99.90;;;;;;25342760;23;20489;-59
2023/10/26 08:02:33;;;;;;;14.23;9.13;;;10.90;99.90;;;;;;25317077;23;20010;-54
2023/10/26 08:12:35;;;;;;;14.80;8.38;;;11.50;99.90;;;;;;25342643;23;20017;-59
2023/10/26 08:22:37;;;;;;;13.55;8.80;;;11.80;99.90;;;;;;25342410;23;20002;-59
2023/10/26 08:32:39;;;;;;;14.07;8.70;;;11.80;99.90;;;;;;25341953;23;20010;-54
2023/10/26 08:42:43;;;;;;;14.18;8.60;;;12.40;99.90;;;;;;25341148;23;20090;-60
2023/10/26 08:52:45;;;;;;;13.23;8.35;;;12.90;99.90;;;;;;25340887;23;20437;-60
2023/10/26 09:02:49;;;;;;;10.30;6.55;;;13.10;99.90;;;;;;25340954;23;20068;-60
2023/10/26 09:13:03;;;;;;;20.17;8.18;;;13.20;99.90;;;;;;25340234;23;20446;-59
2023/10/26 09:23:05;;;;;;;3.55;2.00;;;12.60;99.90;;;;;;25380490;23;20016;-52
2023/10/26 09:33:23;;;;;;;2.80;0.77;;;13.80;99.90;;;;;;25314128;23;20006;-53
2023/10/26 09:43:25;;;;;;;1.40;0.20;;;14.40;99.90;;;;;;25379605;23;20064;-60
2023/10/26 09:53:35;;;;;;;1.45;0.40;;;14.30;99.90;;;;;;25339861;23;20010;-59
2023/10/26 10:03:44;;;;;;;1.88;0.40;;;14.10;99.90;;;;;;25379430;23;20006;-60
2023/10/26 10:13:45;;;;;;;3.45;1.30;;;13.60;99.90;;;;;;25338722;23;20006;-61
2023/10/26 10:23:47;;;;;;;1.85;0.60;;;14.70;99.90;;;;;;25338611;23;20036;-61
2023/10/26 10:34:01;;;;;;;2.33;0.30;;;14.60;99.90;;;;;;25337982;23;20010;-60
2023/10/26 10:44:03;;;;;;;1.75;0.43;;;14.40;99.90;;;;;;25378034;23;20006;-60
2023/10/26 10:54:11;;;;;;;1.08;0.35;;;13.60;99.90;;;;;;25338296;23;20505;-52
2023/10/26 11:04:13;;;;;;;1.92;0.70;;;13.80;99.90;;;;;;25377902;23;20453;-53
2023/10/26 11:14:17;;;;;;;3.00;0.80;;;14.20;99.90;;;;;;25345667;23;20084;-53
2023/10/26 11:24:19;;;;;;;8.88;4.03;;;14.00;99.90;;;;;;25345394;23;20006;-61
2023/10/26 11:34:24;;;;;;;8.80;5.22;;;15.30;99.90;;;;;;25345858;23;20006;-54
2023/10/26 11:44:28;;;;;;;3.60;0.80;;;14.80;99.90;;;;;;25385502;23;20010;-60
2023/10/26 11:54:30;;;;;;;3.35;0.70;;;14.10;99.90;;;;;;25344430;23;20010;-60
2023/10/26 12:04:32;;;;;;;3.13;0.60;;;14.30;99.90;;;;;;25344657;23;20002;-62
2023/10/26 12:14:33;;;;;;;4.13;0.55;;;14.40;99.90;;;;;;25344067;23;20316;-60
2023/10/26 12:24:36;;;;;;;0.93;0.20;;;14.20;99.90;;;;;;25343426;23;20053;-60
2023/10/26 12:34:37;;;;;;;1.85;0.32;;;13.90;99.90;;;;;;25343545;23;20338;-60
2023/10/26 12:44:40;;;;;;;2.03;0.88;;;14.10;99.90;;;;;;25343172;23;20014;-60
2023/10/26 12:54:41;;;;;;;0.95;0.20;;;14.10;99.90;;;;;;25342221;23;20114;-60
2023/10/26 13:04:43;;;;;;;3.05;0.32;;;14.10;99.90;;;;;;25342286;23;20002;-60
2023/10/26 13:14:45;;;;;;;2.80;0.70;;;13.80;99.90;;;;;;25343175;23;20006;-60
2023/10/26 13:24:47;;;;;;;2.55;0.68;;;13.80;99.90;;;;;;25341318;23;20010;-60
2023/10/26 13:34:48;;;;;;;1.20;0.40;;;13.60;99.90;;;;;;25340764;23;20010;-60
2023/10/26 13:44:50;;;;;;;9.10;0.70;;;13.30;99.90;;;;;;25340459;23;20516;-60
2023/10/26 13:54:52;;;;;;;4.05;1.73;;;12.90;99.90;;;;;;25339401;23;20338;-60
2023/10/26 14:04:54;;;;;;;1.88;0.77;;;12.70;99.90;;;;;;25338738;23;20061;-61
2023/10/26 14:14:55;;;;;;;10.00;5.50;;;12.90;99.90;;;;;;25338496;23;20006;-59
2023/10/26 14:24:57;;;;;;;8.43;3.75;;;12.50;99.90;;;;;;25339894;23;20321;-59
2023/10/26 14:34:59;;;;;;;11.45;6.47;;;12.10;99.90;;;;;;25338448;23;20006;-56
2023/10/26 14:45:01;;;;;;;6.40;2.17;;;11.80;99.90;;;;;;25343318;23;20065;-53
2023/10/26 14:55:03;;;;;;;4.38;0.90;;;11.70;99.90;;;;;;25320334;23;20068;-59
2023/10/26 15:05:09;;;;;;;6.53;3.05;;;11.60;99.90;;;;;;25345702;23;20520;-54
2023/10/26 15:15:11;;;;;;;12.98;5.00;;;11.50;99.90;;;;;;25385626;23;20442;-53
2023/10/26 15:25:13;;;;;;;2.03;0.77;;;11.20;99.90;;;;;;25344861;23;20033;-51
2023/10/26 15:35:14;;;;;;;5.45;1.63;;;10.90;99.90;;;;;;25344723;23;20010;-59
2023/10/26 15:45:16;;;;;;;16.90;7.90;;;11.10;99.90;;;;;;25344211;23;20513;-59
2023/10/26 15:55:18;;;;;;;13.75;7.47;;;10.80;99.90;;;;;;25343333;23;20017;-54
2023/10/26 16:05:20;;;;;;;12.50;5.82;;;10.40;99.90;;;;;;25343723;23;20010;-59
2023/10/26 16:15:23;;;;;;;13.20;6.60;;;10.40;99.90;;;;;;25343769;23;20081;-59
2023/10/26 16:25:26;;;;;;;12.45;5.75;;;10.40;99.90;;;;;;25343130;23;20002;-53
2023/10/26 16:35:29;;;;;;;16.90;8.85;;;10.30;99.90;;;;;;25208820;23;20065;-49
2023/10/26 16:45:31;;;;;;;12.35;5.65;;;10.20;99.90;;;;;;25185123;23;20382;-51
2023/10/26 16:55:32;;;;;;;15.30;7.18;;;10.00;99.90;;;;;;25207934;23;20006;-52
2023/10/26 17:05:34;;;;;;;11.40;5.38;;;10.00;99.90;;;;;;25217851;23;20065;-53
2023/10/26 17:15:36;;;;;;;9.10;3.97;;;9.70;99.90;;;;;;25219112;23;20022;-59
2023/10/26 17:25:38;;;;;;;9.57;4.45;;;9.70;99.90;;;;;;25219589;23;20002;-49
2023/10/26 17:35:47;;;;;;;7.15;3.25;;;9.50;99.90;;;;;;25219396;23;20006;-59
2023/10/26 17:45:54;;;;;;;12.53;3.80;;;9.50;99.90;;;;;;25259309;23;20017;-51
2023/10/26 17:56:00;;;;;;;7.97;2.17;;;9.40;99.90;;;;;;25282681;23;20477;-46
2023/10/26 18:06:03;;;;;;;9.60;2.30;;;9.40;99.90;;;;;;25339476;23;20449;-49
2023/10/26 18:16:07;;;;;;;5.82;1.90;;;9.20;99.90;;;;;;25338883;23;20446;-47
2023/10/26 18:26:12;;;;;;;6.93;1.90;;;9.30;99.90;;;;;;25338505;23;20006;-53
2023/10/26 18:36:16;;;;;;;4.32;0.80;;;9.40;99.90;;;;;;25338354;23;20473;-58
2023/10/26 18:46:18;;;;;;;5.68;0.63;;;9.60;99.90;;;;;;25338371;23;20006;-50
2023/10/26 18:56:21;;;;;;;4.10;0.85;;;10.00;99.90;;;;;;25338972;23;20378;-50
2023/10/26 19:06:23;;;;;;;8.30;1.70;;;10.20;99.90;;;;;;25336150;23;20006;-58
2023/10/26 19:16:24;;;;;;;9.52;3.33;;;10.10;99.90;;;;;;25339994;23;20010;-55
2023/10/26 19:26:26;;;;;;;6.97;2.95;;;9.90;99.90;;;;;;25339512;23;20006;-52
2023/10/26 19:36:29;;;;;;;6.72;3.25;;;9.80;99.90;;;;;;25346429;23;20006;-53
2023/10/26 19:46:32;;;;;;;179.93;10.82;;;9.80;99.90;;;;;;25346119;23;20002;-53
2023/10/26 19:56:34;;;;;;;57.80;3.95;;;9.70;99.90;;;;;;25345642;23;20006;-52
2023/10/26 20:06:37;;;;;;;63.15;4.15;;;9.70;99.90;;;;;;25345635;23;20385;-59
2023/10/26 20:16:39;;;;;;;3.00;1.40;;;9.60;99.90;;;;;;25344841;23;20030;-49
2023/10/26 20:26:43;;;;;;;68.57;4.43;;;9.60;99.90;;;;;;25344482;23;20038;-51
2023/10/26 20:36:50;;;;;;;62.95;2.63;;;9.60;99.90;;;;;;25384249;23;20006;-49
2023/10/26 20:46:51;;;;;;;189.07;4.75;;;9.70;99.90;;;;;;25344175;23;20016;-59
2023/10/26 20:56:53;;;;;;;172.82;5.10;;;9.70;99.90;;;;;;25316759;23;20068;-49
2023/10/26 21:06:55;;;;;;;57.05;2.60;;;9.80;99.90;;;;;;25342923;23;20057;-59
2023/10/26 21:16:56;;;;;;;322.38;9.85;;;9.80;99.90;;;;;;25342554;23;20010;-48
2023/10/26 21:26:58;;;;;;;514.25;13.70;;;9.80;99.90;;;;;;25342568;23;20382;-58
2023/10/26 21:37:00;;;;;;;475.77;14.38;;;9.80;99.90;;;;;;25341590;23;20056;-59
2023/10/26 21:47:01;;;;;;;421.50;11.98;;;9.80;99.90;;;;;;25341728;23;20147;-58
2023/10/26 21:57:03;;;;;;;170.05;6.55;;;9.80;99.90;;;;;;25340971;23;20009;-58
2023/10/26 22:07:05;;;;;;;117.88;3.20;;;9.80;99.90;;;;;;25340435;23;20010;-60
2023/10/26 22:17:08;;;;;;;48.28;2.17;;;9.80;99.90;;;;;;25314510;23;20096;-59
2023/10/26 22:27:10;;;;;;;131.98;4.50;;;9.90;99.90;;;;;;25314498;23;20409;-58
2023/10/26 22:37:11;;;;;;;62.58;2.28;;;9.90;99.90;;;;;;25340161;23;20518;-58
2023/10/26 22:47:13;;;;;;;352.55;10.10;;;9.90;99.90;;;;;;25340516;23;20434;-59
2023/10/26 22:57:17;;;;;;;225.80;7.05;;;10.00;99.90;;;;;;25340552;23;20010;-58
2023/10/26 23:07:19;;;;;;;175.63;5.60;;;10.00;99.90;;;;;;25344419;23;20045;-57
2023/10/26 23:17:21;;;;;;;0.20;0.20;;;10.00;99.90;;;;;;25347621;23;20334;-47
2023/10/26 23:27:23;;;;;;;7.65;0.47;;;10.00;99.90;;;;;;25346822;23;20006;-48
2023/10/26 23:37:25;;;;;;;0.40;0.10;;;10.00;99.90;;;;;;25346453;23;20002;-59
2023/10/26 23:47:27;;;;;;;0.40;0.20;;;10.00;99.90;;;;;;25346389;23;20126;-49
2023/10/26 23:57:29;;;;;;;0.00;0.00;;;10.10;99.90;;;;;;25345636;23;20006;-58
